createdAt,value
2019-03-27T00:01:00.205Z,42.40
2019-03-27T00:03:29.428Z,42.40
2019-03-27T00:05:58.750Z,42.80
2019-03-27T00:08:27.990Z,42.60
2019-03-27T00:10:57.212Z,42.70
2019-03-27T00:13:27.343Z,42.60
2019-03-27T00:15:56.584Z,42.50
2019-03-27T00:18:25.811Z,42.70
2019-03-27T00:20:55.067Z,43.00
2019-03-27T00:23:24.386Z,42.70
2019-03-27T00:25:53.710Z,42.90
2019-03-27T00:28:22.955Z,43.00
2019-03-27T00:30:52.383Z,43.20
2019-03-27T00:33:21.633Z,43.50
2019-03-27T00:35:50.857Z,43.30
2019-03-27T00:38:20.167Z,43.50
2019-03-27T00:40:49.478Z,43.50
2019-03-27T00:43:18.734Z,43.50
2019-03-27T00:45:47.881Z,43.30
2019-03-27T00:48:17.083Z,43.50
2019-03-27T00:50:46.310Z,43.60
2019-03-27T00:53:15.531Z,43.70
2019-03-27T00:55:44.772Z,43.90
2019-03-27T00:58:14.008Z,43.80
2019-03-27T01:00:49.607Z,43.60
2019-03-27T01:03:18.847Z,44.00
2019-03-27T01:05:48.074Z,43.80
2019-03-27T01:08:17.338Z,43.80
2019-03-27T01:10:46.701Z,43.80
2019-03-27T01:13:15.985Z,43.50
2019-03-27T01:15:45.295Z,43.60
2019-03-27T01:18:15.671Z,43.20
2019-03-27T01:20:45.020Z,43.20
2019-03-27T01:23:14.395Z,43.20
2019-03-27T01:25:43.668Z,43.00
2019-03-27T01:28:12.904Z,43.10
2019-03-27T01:30:42.119Z,43.10
2019-03-27T01:33:11.526Z,42.60
2019-03-27T01:35:40.882Z,42.40
2019-03-27T01:38:10.175Z,42.30
2019-03-27T01:40:39.458Z,41.30
2019-03-27T01:43:08.718Z,41.30
2019-03-27T01:45:38.021Z,41.00
2019-03-27T01:48:07.260Z,40.60
2019-03-27T01:50:36.411Z,40.40
2019-03-27T01:53:05.674Z,40.10
2019-03-27T01:55:34.993Z,40.20
2019-03-27T01:58:04.337Z,40.10
2019-03-27T02:00:33.602Z,40.70
2019-03-27T02:03:02.911Z,40.90
2019-03-27T02:05:32.138Z,41.30
2019-03-27T02:08:01.301Z,41.70
2019-03-27T02:10:32.143Z,42.20
2019-03-27T02:13:01.588Z,42.50
2019-03-27T02:15:30.882Z,42.40
2019-03-27T02:18:00.251Z,42.40
2019-03-27T02:20:29.550Z,42.40
2019-03-27T02:22:58.886Z,42.70
2019-03-27T02:25:28.037Z,42.80
2019-03-27T02:27:57.262Z,42.70
2019-03-27T02:30:27.021Z,42.90
2019-03-27T02:32:56.282Z,43.00
2019-03-27T02:35:25.440Z,43.10
2019-03-27T02:37:54.785Z,43.10
2019-03-27T02:40:24.124Z,43.50
2019-03-27T02:42:53.383Z,43.60
2019-03-27T02:45:22.623Z,44.00
2019-03-27T02:47:52.941Z,44.10
2019-03-27T02:50:22.381Z,43.90
2019-03-27T02:52:52.777Z,44.00
2019-03-27T02:55:22.080Z,44.00
2019-03-27T02:57:51.463Z,44.00
2019-03-27T03:00:20.701Z,43.90
2019-03-27T03:02:50.057Z,43.90
2019-03-27T03:05:19.388Z,44.40
2019-03-27T03:07:50.280Z,44.30
2019-03-27T03:10:19.545Z,44.50
2019-03-27T03:12:48.829Z,44.80
2019-03-27T03:15:20.492Z,44.50
2019-03-27T03:17:50.309Z,45.00
2019-03-27T03:20:19.612Z,44.80
2019-03-27T03:22:48.817Z,44.70
2019-03-27T03:25:18.055Z,44.70
2019-03-27T03:27:47.759Z,45.00
2019-03-27T03:30:17.052Z,45.20
2019-03-27T03:32:46.308Z,45.20
2019-03-27T03:35:15.660Z,45.20
2019-03-27T03:37:45.115Z,45.50
2019-03-27T03:40:14.493Z,45.30
2019-03-27T03:42:44.006Z,45.70
2019-03-27T03:45:13.386Z,45.50
2019-03-27T03:47:42.755Z,45.70
2019-03-27T03:50:33.500Z,45.90
2019-03-27T03:53:02.798Z,46.10
2019-03-27T03:55:32.896Z,46.70
2019-03-27T03:58:02.590Z,47.10
2019-03-27T04:00:51.291Z,47.30
2019-03-27T04:03:21.742Z,47.30
2019-03-27T04:05:51.051Z,47.00
2019-03-27T04:08:20.352Z,47.10
2019-03-27T04:10:49.560Z,47.00
2019-03-27T04:13:18.931Z,47.70
2019-03-27T04:15:48.200Z,47.60
2019-03-27T04:18:17.516Z,47.60
2019-03-27T04:20:46.903Z,47.60
2019-03-27T04:23:16.173Z,47.20
2019-03-27T04:26:08.072Z,47.20
2019-03-27T04:28:16.338Z,47.00
2019-03-27T04:30:45.590Z,46.80
2019-03-27T04:33:14.839Z,46.80
2019-03-27T04:35:44.232Z,46.90
2019-03-27T04:38:13.582Z,46.80
2019-03-27T04:40:42.810Z,47.00
2019-03-27T04:43:12.033Z,47.30
2019-03-27T04:45:41.393Z,47.50
2019-03-27T04:48:10.806Z,47.30
2019-03-27T04:50:40.050Z,47.40
2019-03-27T04:53:09.350Z,47.60
2019-03-27T04:55:38.635Z,47.20
2019-03-27T04:58:07.862Z,47.60
2019-03-27T05:00:38.303Z,46.70
2019-03-27T05:03:07.668Z,46.50
2019-03-27T05:05:36.913Z,45.90
2019-03-27T05:08:06.133Z,45.40
2019-03-27T05:10:35.422Z,45.10
2019-03-27T05:13:04.647Z,44.70
2019-03-27T05:15:33.881Z,44.70
2019-03-27T05:18:03.154Z,44.90
2019-03-27T05:20:32.516Z,44.40
2019-03-27T05:23:01.821Z,44.30
2019-03-27T05:25:31.070Z,44.80
2019-03-27T05:28:00.586Z,44.70
2019-03-27T05:30:30.952Z,44.30
2019-03-27T05:33:00.322Z,44.30
2019-03-27T05:35:29.549Z,44.20
2019-03-27T05:37:58.784Z,44.30
2019-03-27T05:40:28.127Z,44.40
2019-03-27T05:43:00.863Z,44.00
2019-03-27T05:45:28.471Z,44.20
2019-03-27T05:47:59.715Z,44.10
2019-03-27T05:50:28.870Z,44.10
2019-03-27T05:52:58.116Z,44.10
2019-03-27T05:55:27.584Z,44.10
2019-03-27T05:57:57.192Z,44.10
2019-03-27T06:00:26.845Z,44.10
2019-03-27T06:02:56.174Z,44.20
2019-03-27T06:05:25.458Z,44.90
2019-03-27T06:07:54.846Z,44.20
2019-03-27T06:10:24.152Z,44.30
2019-03-27T06:12:53.750Z,43.80
2019-03-27T06:15:33.201Z,43.80
2019-03-27T06:18:12.600Z,43.80
2019-03-27T06:20:33.910Z,43.90
2019-03-27T06:23:03.281Z,43.80
2019-03-27T06:25:32.926Z,44.10
2019-03-27T06:28:02.593Z,44.30
2019-03-27T06:30:31.896Z,44.30
2019-03-27T06:33:01.272Z,43.80
2019-03-27T06:35:30.639Z,43.80
2019-03-27T06:37:59.919Z,44.30
2019-03-27T06:40:29.252Z,44.80
2019-03-27T06:43:10.836Z,45.20
2019-03-27T06:45:40.149Z,44.90
2019-03-27T06:48:10.457Z,44.40
2019-03-27T06:50:39.685Z,44.30
2019-03-27T06:53:08.989Z,44.70
2019-03-27T06:55:38.472Z,45.00
2019-03-27T06:58:07.826Z,44.10
2019-03-27T07:00:37.666Z,44.40
2019-03-27T07:03:07.458Z,44.40
2019-03-27T07:05:36.867Z,43.70
2019-03-27T07:08:07.182Z,43.30
2019-03-27T07:10:36.418Z,43.70
2019-03-27T07:13:05.723Z,44.30
2019-03-27T07:15:35.815Z,44.10
2019-03-27T07:18:05.540Z,42.90
2019-03-27T07:20:34.906Z,42.70
2019-03-27T07:23:04.439Z,42.80
2019-03-27T07:25:33.757Z,43.10
2019-03-27T07:28:03.102Z,43.30
2019-03-27T07:30:32.390Z,43.00
2019-03-27T07:33:02.740Z,42.80
2019-03-27T07:35:51.420Z,42.00
2019-03-27T07:38:20.596Z,41.40
2019-03-27T07:40:50.339Z,41.30
2019-03-27T07:43:19.679Z,41.20
2019-03-27T07:46:08.424Z,41.00
2019-03-27T07:48:37.739Z,41.10
2019-03-27T07:51:07.010Z,40.40
2019-03-27T07:53:36.310Z,40.50
2019-03-27T07:56:05.577Z,40.70
2019-03-27T07:58:34.896Z,39.50
2019-03-27T08:01:04.115Z,38.90
2019-03-27T08:03:33.516Z,38.30
2019-03-27T08:06:02.693Z,37.80
2019-03-27T08:08:31.980Z,37.00
2019-03-27T08:11:01.257Z,37.20
2019-03-27T08:13:30.493Z,37.00
2019-03-27T08:15:59.790Z,37.00
2019-03-27T08:18:30.018Z,36.30
2019-03-27T08:20:59.236Z,36.40
2019-03-27T08:23:28.625Z,35.90
2019-03-27T08:25:58.105Z,36.40
2019-03-27T08:28:27.316Z,36.60
2019-03-27T08:30:56.558Z,36.10
2019-03-27T08:33:25.937Z,35.80
2019-03-27T08:35:55.318Z,36.80
2019-03-27T08:38:24.627Z,36.80
2019-03-27T08:40:54.063Z,36.60
2019-03-27T08:43:25.617Z,36.90
2019-03-27T08:45:55.630Z,36.50
2019-03-27T08:48:24.957Z,35.80
2019-03-27T08:50:54.604Z,36.20
2019-03-27T08:53:24.044Z,35.20
2019-03-27T08:55:53.313Z,34.80
2019-03-27T08:58:22.626Z,34.70
2019-03-27T09:00:53.694Z,34.90
2019-03-27T09:03:22.992Z,34.00
2019-03-27T09:05:53.574Z,34.50
2019-03-27T09:08:22.762Z,36.90
2019-03-27T09:10:52.018Z,35.30
2019-03-27T09:13:21.224Z,33.60
2019-03-27T09:15:50.461Z,34.40
2019-03-27T09:18:19.631Z,33.40
2019-03-27T09:20:49.057Z,32.70
2019-03-27T09:23:18.470Z,31.80
2019-03-27T09:25:47.773Z,32.30
2019-03-27T09:28:17.077Z,32.40
2019-03-27T09:30:46.453Z,33.10
2019-03-27T09:33:15.911Z,33.90
2019-03-27T09:35:45.172Z,34.00
2019-03-27T09:38:14.376Z,32.70
2019-03-27T09:40:43.592Z,31.80
2019-03-27T09:43:12.765Z,31.20
2019-03-27T09:45:42.243Z,31.70
2019-03-27T09:48:11.537Z,31.40
2019-03-27T09:50:40.834Z,31.30
2019-03-27T09:53:10.147Z,31.80
2019-03-27T09:55:39.471Z,32.40
2019-03-27T09:58:08.777Z,32.10
2019-03-27T10:00:53.401Z,33.10
2019-03-27T10:03:22.610Z,33.20
2019-03-27T10:05:51.978Z,32.60
2019-03-27T10:08:21.223Z,31.80
2019-03-27T10:10:50.749Z,31.60
2019-03-27T10:13:20.048Z,32.60
2019-03-27T10:15:49.354Z,32.10
2019-03-27T10:18:18.719Z,31.20
2019-03-27T10:20:48.055Z,30.60
2019-03-27T10:23:17.355Z,31.70
2019-03-27T10:25:46.509Z,31.80
2019-03-27T10:28:15.851Z,32.10
2019-03-27T10:30:45.203Z,31.80
2019-03-27T10:33:15.380Z,32.70
2019-03-27T10:35:46.894Z,32.70
2019-03-27T10:38:16.230Z,33.20
2019-03-27T10:40:46.257Z,33.80
2019-03-27T10:43:15.574Z,32.90
2019-03-27T10:45:45.041Z,32.50
2019-03-27T10:48:14.402Z,31.40
2019-03-27T10:50:43.613Z,32.40
2019-03-27T10:53:12.880Z,31.00
2019-03-27T10:55:44.056Z,31.50
2019-03-27T10:58:12.959Z,33.20
2019-03-27T11:00:42.340Z,32.50
2019-03-27T11:03:11.824Z,32.00
2019-03-27T11:05:41.390Z,32.00
2019-03-27T11:08:11.898Z,31.40
2019-03-27T11:10:41.192Z,32.20
2019-03-27T11:13:10.572Z,32.50
2019-03-27T11:15:39.738Z,32.00
2019-03-27T11:18:09.098Z,32.20
2019-03-27T11:20:38.353Z,33.30
2019-03-27T11:23:09.024Z,30.90
2019-03-27T11:25:38.439Z,31.50
2019-03-27T11:28:07.729Z,32.10
2019-03-27T11:30:37.828Z,32.30
2019-03-27T11:33:07.430Z,31.50
2019-03-27T11:35:36.720Z,30.70
2019-03-27T11:38:05.967Z,30.90
2019-03-27T11:40:35.260Z,29.80
2019-03-27T11:43:04.530Z,30.00
2019-03-27T11:45:34.832Z,30.10
2019-03-27T11:48:04.209Z,31.30
2019-03-27T11:50:44.909Z,31.70
2019-03-27T11:53:05.575Z,31.40
2019-03-27T11:55:34.783Z,29.80
2019-03-27T11:58:04.117Z,28.90
2019-03-27T12:00:33.410Z,29.30
2019-03-27T12:03:02.834Z,30.00
2019-03-27T12:05:33.254Z,29.90
2019-03-27T12:08:02.637Z,28.30
2019-03-27T12:10:31.863Z,28.70
2019-03-27T12:13:01.099Z,28.80
2019-03-27T12:15:40.871Z,30.30
2019-03-27T12:18:10.456Z,29.70
2019-03-27T12:20:40.408Z,29.10
2019-03-27T12:23:09.586Z,29.50
2019-03-27T12:25:38.822Z,29.00
2019-03-27T12:28:08.008Z,29.80
2019-03-27T12:30:47.194Z,29.70
2019-03-27T12:33:17.467Z,28.70
2019-03-27T12:35:46.719Z,27.80
2019-03-27T12:38:16.000Z,27.90
2019-03-27T12:40:45.259Z,28.30
2019-03-27T12:43:14.544Z,27.30
2019-03-27T12:45:43.853Z,27.90
2019-03-27T12:48:13.065Z,27.40
2019-03-27T12:50:44.384Z,26.80
2019-03-27T12:53:13.416Z,27.50
2019-03-27T12:55:42.671Z,27.50
2019-03-27T12:58:12.879Z,27.10
2019-03-27T13:00:42.136Z,27.80
2019-03-27T13:03:11.537Z,27.00
2019-03-27T13:05:41.870Z,27.20
2019-03-27T13:08:11.139Z,26.30
2019-03-27T13:10:40.574Z,26.80
2019-03-27T13:13:09.865Z,27.50
2019-03-27T13:15:39.244Z,27.40
2019-03-27T13:18:08.488Z,25.50
2019-03-27T13:20:37.807Z,25.50
2019-03-27T13:23:06.997Z,25.90
2019-03-27T13:25:36.292Z,26.20
2019-03-27T13:28:05.657Z,25.30
2019-03-27T13:30:34.972Z,24.50
2019-03-27T13:33:04.303Z,24.40
2019-03-27T13:35:33.570Z,24.50
2019-03-27T13:38:02.820Z,23.70
2019-03-27T13:40:32.192Z,22.20
2019-03-27T13:43:01.527Z,22.10
2019-03-27T13:45:30.829Z,22.20
2019-03-27T13:48:00.145Z,22.30
2019-03-27T13:50:29.421Z,23.10
2019-03-27T13:52:58.716Z,22.50
2019-03-27T13:55:27.930Z,21.70
2019-03-27T13:57:57.090Z,20.50
2019-03-27T14:00:26.763Z,20.70
2019-03-27T14:02:56.222Z,20.70
2019-03-27T14:05:26.077Z,20.50
2019-03-27T14:07:56.458Z,20.50
2019-03-27T14:10:25.945Z,20.80
2019-03-27T14:12:55.131Z,20.20
2019-03-27T14:15:24.450Z,20.60
2019-03-27T14:17:53.684Z,19.90
2019-03-27T14:20:22.946Z,20.10
2019-03-27T14:22:52.426Z,20.10
2019-03-27T14:25:22.163Z,18.60
2019-03-27T14:27:51.953Z,19.10
2019-03-27T14:30:49.437Z,18.90
2019-03-27T14:33:19.357Z,18.50
2019-03-27T14:35:48.758Z,17.90
2019-03-27T14:38:18.268Z,18.40
2019-03-27T14:40:47.744Z,17.90
2019-03-27T14:43:17.061Z,17.90
2019-03-27T14:45:46.475Z,17.80
2019-03-27T14:48:15.835Z,18.10
2019-03-27T14:50:45.279Z,17.60
2019-03-27T14:53:14.882Z,18.10
2019-03-27T14:55:44.657Z,17.90
2019-03-27T14:58:13.957Z,17.50
2019-03-27T15:00:44.348Z,17.50
2019-03-27T15:03:13.662Z,17.70
2019-03-27T15:05:43.267Z,18.20
2019-03-27T15:08:12.788Z,17.60
2019-03-27T15:10:42.089Z,17.20
2019-03-27T15:13:15.045Z,17.50
2019-03-27T15:15:42.795Z,18.30
2019-03-27T15:18:14.543Z,18.70
2019-03-27T15:20:43.761Z,19.00
2019-03-27T15:23:14.327Z,19.30
2019-03-27T15:25:43.724Z,20.60
2019-03-27T15:28:13.071Z,19.50
2019-03-27T15:30:42.597Z,18.70
2019-03-27T15:33:12.040Z,17.80
2019-03-27T15:35:44.408Z,17.50
2019-03-27T15:38:12.423Z,17.30
2019-03-27T15:40:44.110Z,16.80
2019-03-27T15:43:14.528Z,16.90
2019-03-27T15:45:43.888Z,16.10
2019-03-27T15:48:13.259Z,15.60
2019-03-27T15:50:55.271Z,15.60
2019-03-27T15:53:13.489Z,16.00
2019-03-27T15:55:42.862Z,17.00
2019-03-27T15:58:12.209Z,17.50
2019-03-27T16:00:41.528Z,16.80
2019-03-27T16:03:11.835Z,17.50
2019-03-27T16:05:41.204Z,17.60
2019-03-27T16:08:11.513Z,17.10
2019-03-27T16:10:42.334Z,17.20
2019-03-27T16:13:11.553Z,17.30
2019-03-27T16:15:40.835Z,17.30
2019-03-27T16:18:10.240Z,16.70
2019-03-27T16:20:39.548Z,16.50
2019-03-27T16:23:08.818Z,16.80
2019-03-27T16:25:38.174Z,16.50
2019-03-27T16:28:07.614Z,16.80
2019-03-27T16:30:37.097Z,16.80
2019-03-27T16:33:06.368Z,17.70
2019-03-27T16:35:35.694Z,17.90
2019-03-27T16:38:04.938Z,18.00
2019-03-27T16:40:44.618Z,19.00
2019-03-27T16:43:14.292Z,20.30
2019-03-27T16:45:43.650Z,21.30
2019-03-27T16:48:13.043Z,22.00
2019-03-27T16:50:42.213Z,22.70
2019-03-27T16:53:11.464Z,23.20
2019-03-27T16:55:41.212Z,23.90
2019-03-27T16:58:10.587Z,24.30
2019-03-27T17:00:40.021Z,24.40
2019-03-27T17:03:09.551Z,24.30
2019-03-27T17:05:52.917Z,23.90
2019-03-27T17:08:09.911Z,23.90
2019-03-27T17:10:39.141Z,23.60
2019-03-27T17:13:08.444Z,23.90
2019-03-27T17:15:38.083Z,24.70
2019-03-27T17:18:07.531Z,24.10
2019-03-27T17:20:36.848Z,24.50
2019-03-27T17:23:17.406Z,24.90
2019-03-27T17:25:37.054Z,25.40
2019-03-27T17:28:06.355Z,25.70
2019-03-27T17:30:35.673Z,26.30
2019-03-27T17:33:04.896Z,26.80
2019-03-27T17:35:34.206Z,27.40
2019-03-27T17:38:03.582Z,27.30
2019-03-27T17:40:32.902Z,27.50
2019-03-27T17:43:02.154Z,28.50
2019-03-27T17:45:31.480Z,28.10
2019-03-27T17:48:00.864Z,28.70
2019-03-27T17:50:30.164Z,30.10
2019-03-27T17:52:59.593Z,30.10
2019-03-27T17:55:28.811Z,30.20
2019-03-27T17:57:58.255Z,30.90
2019-03-27T18:00:48.836Z,33.00
2019-03-27T18:03:18.128Z,31.10
2019-03-27T18:05:47.334Z,31.50
2019-03-27T18:08:16.718Z,31.90
2019-03-27T18:10:48.681Z,32.40
2019-03-27T18:13:17.963Z,32.80
2019-03-27T18:15:47.199Z,33.50
2019-03-27T18:18:16.362Z,32.80
2019-03-27T18:20:45.807Z,32.70
2019-03-27T18:23:15.160Z,33.20
2019-03-27T18:25:44.443Z,33.70
2019-03-27T18:28:34.733Z,33.50
2019-03-27T18:31:04.011Z,33.70
2019-03-27T18:33:34.224Z,33.90
2019-03-27T18:36:03.837Z,34.90
2019-03-27T18:38:33.366Z,33.80
2019-03-27T18:41:02.679Z,33.70
2019-03-27T18:43:51.729Z,33.90
2019-03-27T18:46:21.026Z,34.00
2019-03-27T18:48:51.372Z,34.60
2019-03-27T18:51:20.589Z,34.80
2019-03-27T18:53:59.659Z,34.90
2019-03-27T18:56:22.424Z,34.70
2019-03-27T18:58:52.078Z,35.10
2019-03-27T19:01:21.407Z,35.20
2019-03-27T19:03:50.824Z,35.40
2019-03-27T19:06:20.254Z,35.70
2019-03-27T19:08:49.591Z,35.80
2019-03-27T19:11:19.196Z,35.40
2019-03-27T19:13:49.893Z,35.80
2019-03-27T19:16:19.208Z,35.80
2019-03-27T19:18:48.490Z,35.90
2019-03-27T19:21:17.797Z,36.00
2019-03-27T19:23:47.078Z,36.30
2019-03-27T19:26:16.360Z,36.60
2019-03-27T19:28:45.660Z,36.70
2019-03-27T19:31:15.202Z,36.90
2019-03-27T19:33:44.544Z,37.30
2019-03-27T19:36:13.755Z,37.60
2019-03-27T19:38:42.971Z,37.80
2019-03-27T19:41:12.245Z,37.90
2019-03-27T19:43:41.676Z,37.90
2019-03-27T19:46:11.071Z,37.50
2019-03-27T19:48:40.512Z,37.40
2019-03-27T19:51:11.370Z,37.70
2019-03-27T19:53:40.988Z,37.50
2019-03-27T19:56:10.295Z,37.30
2019-03-27T19:58:39.684Z,37.50
2019-03-27T20:01:09.135Z,37.40
2019-03-27T20:03:38.502Z,38.20
2019-03-27T20:06:07.855Z,38.20
2019-03-27T20:08:37.185Z,38.10
2019-03-27T20:11:06.612Z,38.20
2019-03-27T20:13:35.926Z,38.30
2019-03-27T20:16:05.303Z,38.50
2019-03-27T20:18:34.706Z,38.80
2019-03-27T20:21:04.091Z,38.50
2019-03-27T20:23:33.735Z,38.60
2019-03-27T20:26:03.054Z,38.70
2019-03-27T20:28:32.494Z,39.00
2019-03-27T20:31:01.833Z,39.30
2019-03-27T20:33:31.591Z,39.20
2019-03-27T20:36:02.984Z,39.30
2019-03-27T20:38:31.880Z,39.30
2019-03-27T20:41:01.271Z,39.30
2019-03-27T20:43:30.538Z,39.40
2019-03-27T20:45:59.824Z,39.70
2019-03-27T20:48:29.173Z,39.70
2019-03-27T20:50:58.358Z,39.40
2019-03-27T20:53:29.014Z,39.60
2019-03-27T20:55:58.412Z,39.90
2019-03-27T20:58:27.714Z,40.00
2019-03-27T21:00:57.227Z,40.00
2019-03-27T21:03:26.810Z,40.20
2019-03-27T21:05:56.829Z,40.00
2019-03-27T21:08:26.074Z,39.50
2019-03-27T21:10:55.343Z,40.70
2019-03-27T21:13:24.689Z,40.80
2019-03-27T21:15:54.064Z,40.50
2019-03-27T21:18:23.307Z,40.50
2019-03-27T21:20:52.614Z,40.60
2019-03-27T21:23:21.939Z,40.80
2019-03-27T21:25:51.711Z,40.50
2019-03-27T21:28:20.901Z,40.80
2019-03-27T21:30:50.075Z,41.00
2019-03-27T21:33:19.375Z,40.90
2019-03-27T21:35:48.689Z,40.90
2019-03-27T21:38:17.930Z,41.20
2019-03-27T21:40:47.256Z,41.10
2019-03-27T21:43:16.546Z,41.40
2019-03-27T21:45:45.882Z,41.90
2019-03-27T21:48:15.134Z,41.70
2019-03-27T21:50:44.436Z,41.50
2019-03-27T21:53:13.807Z,41.50
2019-03-27T21:55:43.329Z,41.40
2019-03-27T21:58:14.115Z,41.60
2019-03-27T22:00:43.759Z,41.50
2019-03-27T22:03:13.029Z,41.50
2019-03-27T22:05:42.576Z,41.70
2019-03-27T22:08:11.810Z,41.60
2019-03-27T22:10:41.085Z,41.60
2019-03-27T22:13:10.354Z,41.80
2019-03-27T22:15:39.660Z,41.70
2019-03-27T22:18:09.133Z,42.30
2019-03-27T22:20:39.835Z,41.90
2019-03-27T22:23:09.475Z,42.00
2019-03-27T22:25:38.779Z,42.00
2019-03-27T22:28:08.165Z,42.30
2019-03-27T22:30:37.377Z,42.20
2019-03-27T22:33:06.695Z,42.30
2019-03-27T22:35:35.873Z,42.70
2019-03-27T22:38:05.042Z,42.80
2019-03-27T22:40:34.269Z,43.00
2019-03-27T22:43:03.659Z,43.00
2019-03-27T22:45:32.946Z,43.10
2019-03-27T22:48:21.540Z,43.20
2019-03-27T22:50:50.730Z,43.20
2019-03-27T22:53:19.917Z,43.20
2019-03-27T22:55:50.573Z,43.50
2019-03-27T22:58:20.268Z,43.50
2019-03-27T23:00:52.972Z,43.70
2019-03-27T23:03:22.709Z,43.80
2019-03-27T23:05:51.970Z,43.90
2019-03-27T23:08:21.336Z,44.10
2019-03-27T23:10:50.660Z,44.10
2019-03-27T23:13:21.482Z,44.10
2019-03-27T23:15:50.770Z,44.40
2019-03-27T23:18:20.159Z,44.30
2019-03-27T23:20:49.460Z,44.00
2019-03-27T23:23:18.678Z,44.20
2019-03-27T23:25:47.913Z,44.10
2019-03-27T23:28:17.459Z,44.20
2019-03-27T23:30:47.003Z,44.30
2019-03-27T23:33:16.503Z,44.30
2019-03-27T23:35:45.963Z,44.10
2019-03-27T23:38:15.249Z,44.50
2019-03-27T23:40:44.697Z,44.30
2019-03-27T23:43:13.951Z,44.50
2019-03-27T23:45:43.425Z,44.60
2019-03-27T23:48:12.742Z,44.50
2019-03-27T23:50:42.059Z,44.50
2019-03-27T23:53:21.191Z,44.80
2019-03-27T23:55:51.811Z,45.20
2019-03-27T23:58:21.643Z,45.10
